createdAt,value
2022-11-07T00:04:06.017Z,4.40
2022-11-07T00:09:09.937Z,4.23
2022-11-07T00:14:15.281Z,3.90
2022-11-07T00:19:24.530Z,4.47
2022-11-07T00:24:28.520Z,4.20
2022-11-07T00:29:31.153Z,3.77
2022-11-07T00:34:35.266Z,4.73
2022-11-07T00:39:36.914Z,4.53
2022-11-07T00:44:40.961Z,4.00
2022-11-07T00:49:44.886Z,3.77
2022-11-07T00:54:51.433Z,3.80
2022-11-07T00:59:53.057Z,4.67
2022-11-07T01:05:13.185Z,2.70
2022-11-07T01:10:15.889Z,3.70
2022-11-07T01:15:22.158Z,3.83
2022-11-07T01:20:26.578Z,3.87
2022-11-07T01:25:28.248Z,4.13
2022-11-07T01:30:33.810Z,4.00
2022-11-07T01:35:38.713Z,3.70
2022-11-07T01:41:01.008Z,4.10
2022-11-07T01:46:04.793Z,3.47
2022-11-07T01:51:09.841Z,4.10
2022-11-07T01:56:14.891Z,4.00
2022-11-07T02:01:18.625Z,3.47
2022-11-07T02:06:45.640Z,3.80
2022-11-07T02:11:51.812Z,3.43
2022-11-07T02:16:58.170Z,3.83
2022-11-07T02:22:04.488Z,2.80
2022-11-07T02:27:09.326Z,3.73
2022-11-07T02:32:15.611Z,3.58
2022-11-07T02:37:24.305Z,3.10
2022-11-07T02:42:43.349Z,3.53
2022-11-07T02:47:45.240Z,2.80
2022-11-07T02:52:49.607Z,3.43
2022-11-07T02:57:53.649Z,3.30
2022-11-07T03:02:55.528Z,3.38
2022-11-07T03:08:02.289Z,3.10
2022-11-07T03:13:06.654Z,3.07
2022-11-07T03:18:10.590Z,2.93
2022-11-07T03:23:14.772Z,2.97
2022-11-07T03:28:16.854Z,3.22
2022-11-07T03:33:23.098Z,3.23
2022-11-07T03:38:31.978Z,3.40
2022-11-07T03:43:33.597Z,3.17
2022-11-07T03:48:40.951Z,3.40
2022-11-07T03:53:44.952Z,3.27
2022-11-07T03:58:49.683Z,2.80
2022-11-07T04:03:56.261Z,2.90
2022-11-07T04:09:00.589Z,2.97
2022-11-07T04:14:26.347Z,3.30
2022-11-07T04:19:27.987Z,3.03
2022-11-07T04:24:29.653Z,3.53
2022-11-07T04:29:31.361Z,2.90
2022-11-07T04:34:34.153Z,3.80
2022-11-07T04:39:42.982Z,3.40
2022-11-07T04:44:44.647Z,3.47
2022-11-07T04:49:48.648Z,3.70
2022-11-07T04:54:52.838Z,3.83
2022-11-07T04:59:54.599Z,4.23
2022-11-07T05:04:58.506Z,4.05
2022-11-07T05:10:00.169Z,4.57
2022-11-07T05:15:01.865Z,4.40
2022-11-07T05:20:06.349Z,4.63
2022-11-07T05:25:10.350Z,4.37
2022-11-07T05:30:21.073Z,4.33
2022-11-07T05:35:22.717Z,4.50
2022-11-07T05:40:27.017Z,3.83
2022-11-07T05:45:37.546Z,3.70
2022-11-07T05:50:41.350Z,4.30
2022-11-07T05:55:43.158Z,3.53
2022-11-07T06:00:47.645Z,4.53
2022-11-07T06:05:54.065Z,3.43
2022-11-07T06:11:00.610Z,3.93
2022-11-07T06:16:03.466Z,4.30
2022-11-07T06:21:07.761Z,3.70
2022-11-07T06:26:12.194Z,3.50
2022-11-07T06:31:14.097Z,4.23
2022-11-07T06:36:21.817Z,4.30
2022-11-07T06:41:23.836Z,3.90
2022-11-07T06:46:27.603Z,3.90
2022-11-07T06:51:32.575Z,4.80
2022-11-07T06:56:36.700Z,3.83
2022-11-07T07:01:41.043Z,4.23
2022-11-07T07:06:45.645Z,3.33
2022-11-07T07:11:48.268Z,4.40
2022-11-07T07:16:54.066Z,4.57
2022-11-07T07:21:55.816Z,3.90
2022-11-07T07:26:57.440Z,3.63
2022-11-07T07:32:02.659Z,3.88
2022-11-07T07:37:09.171Z,3.90
2022-11-07T07:42:13.106Z,3.90
2022-11-07T07:47:19.232Z,4.22
2022-11-07T07:52:23.381Z,3.72
2022-11-07T07:57:29.792Z,3.30
2022-11-07T08:02:35.010Z,3.58
2022-11-07T08:07:44.887Z,3.83
2022-11-07T08:12:49.383Z,3.70
2022-11-07T08:17:53.511Z,2.90
2022-11-07T08:23:09.781Z,3.58
2022-11-07T08:28:20.207Z,3.88
2022-11-07T08:33:27.106Z,3.88
2022-11-07T08:38:34.552Z,4.07
2022-11-07T08:43:40.382Z,3.13
2022-11-07T08:48:46.583Z,3.70
2022-11-07T08:53:48.274Z,4.28
2022-11-07T08:58:52.244Z,4.40
2022-11-07T09:03:58.069Z,4.70
2022-11-07T09:09:00.965Z,5.07
2022-11-07T09:14:02.696Z,4.72
2022-11-07T09:19:04.460Z,4.93
2022-11-07T09:24:08.473Z,4.63
2022-11-07T09:29:14.784Z,4.45
2022-11-07T09:34:16.526Z,4.93
2022-11-07T09:39:20.442Z,5.18
2022-11-07T09:44:55.551Z,5.35
2022-11-07T09:50:00.185Z,5.15
2022-11-07T09:55:15.820Z,4.82
2022-11-07T10:00:21.291Z,3.50
2022-11-07T10:06:02.667Z,4.78
2022-11-07T10:11:11.803Z,4.32
2022-11-07T10:16:17.535Z,4.90
2022-11-07T10:21:38.704Z,5.47
2022-11-07T10:26:45.692Z,4.78
2022-11-07T10:32:11.915Z,5.20
2022-11-07T10:37:13.652Z,4.25
2022-11-07T10:42:20.839Z,5.45
2022-11-07T10:47:29.039Z,4.57
2022-11-07T10:52:30.756Z,5.25
2022-11-07T10:57:36.047Z,4.25
2022-11-07T11:02:50.585Z,3.97
2022-11-07T11:07:55.554Z,4.38
2022-11-07T11:13:02.189Z,3.55
2022-11-07T11:18:12.534Z,3.70
2022-11-07T11:23:25.989Z,3.33
2022-11-07T11:28:37.107Z,3.90
2022-11-07T11:33:45.016Z,3.92
2022-11-07T11:38:54.354Z,3.85
2022-11-07T11:44:13.712Z,3.33
2022-11-07T11:49:44.385Z,3.38
2022-11-07T11:54:46.950Z,2.83
2022-11-07T12:00:24.971Z,3.88
2022-11-07T12:05:32.600Z,3.05
2022-11-07T12:11:00.757Z,3.10
2022-11-07T12:16:29.743Z,3.63
2022-11-07T12:21:47.350Z,3.40
2022-11-07T12:27:16.197Z,3.00
2022-11-07T12:32:36.707Z,3.65
2022-11-07T12:38:10.976Z,3.13
2022-11-07T12:43:15.810Z,3.70
2022-11-07T12:48:23.200Z,3.40
2022-11-07T12:53:36.882Z,3.67
2022-11-07T13:04:18.765Z,3.55
2022-11-07T13:09:56.088Z,3.40
2022-11-07T13:14:59.052Z,3.55
2022-11-07T13:20:03.749Z,4.40
2022-11-07T13:25:16.024Z,2.45
2022-11-07T13:30:21.070Z,3.50
2022-11-07T13:35:26.495Z,3.53
2022-11-07T13:40:43.294Z,3.60
2022-11-07T13:45:55.545Z,3.95
2022-11-07T13:51:06.049Z,3.65
2022-11-07T13:56:15.235Z,3.50
2022-11-07T14:01:19.413Z,3.05
2022-11-07T14:06:21.492Z,2.97
2022-11-07T14:11:27.564Z,3.33
2022-11-07T14:16:35.777Z,3.55
2022-11-07T14:21:37.594Z,3.10
2022-11-07T14:26:43.793Z,3.22
2022-11-07T14:31:45.722Z,3.05
2022-11-07T14:37:13.466Z,2.47
2022-11-07T14:42:23.454Z,3.00
2022-11-07T14:47:32.524Z,3.08
2022-11-07T14:52:44.965Z,2.60
2022-11-07T14:57:52.068Z,2.70
2022-11-07T15:02:58.278Z,2.60
2022-11-07T15:08:00.054Z,3.92
2022-11-07T15:13:04.407Z,2.80
2022-11-07T15:18:25.774Z,3.25
2022-11-07T15:23:35.566Z,3.03
2022-11-07T15:28:51.154Z,3.03
2022-11-07T15:33:59.859Z,3.58
2022-11-07T15:39:04.865Z,2.97
2022-11-07T15:44:11.397Z,3.30
2022-11-07T15:49:18.408Z,3.10
2022-11-07T15:54:20.283Z,3.35
2022-11-07T15:59:22.520Z,3.20
2022-11-07T16:04:27.608Z,3.20
2022-11-07T16:09:32.444Z,4.43
2022-11-07T16:14:46.269Z,4.45
2022-11-07T16:20:00.275Z,3.95
2022-11-07T16:25:05.912Z,4.10
2022-11-07T16:30:18.029Z,4.60
2022-11-07T16:35:25.437Z,4.68
2022-11-07T16:40:33.666Z,4.80
2022-11-07T16:45:47.200Z,5.88
2022-11-07T16:50:49.878Z,5.15
2022-11-07T16:55:54.260Z,5.32
2022-11-07T17:00:58.012Z,4.28
2022-11-07T17:06:03.900Z,4.90
2022-11-07T17:11:08.834Z,5.90
2022-11-07T17:16:14.387Z,6.30
2022-11-07T17:21:30.375Z,4.70
2022-11-07T17:26:41.379Z,5.00
2022-11-07T17:31:43.357Z,5.13
2022-11-07T17:36:49.576Z,5.07
2022-11-07T17:41:52.457Z,5.80
2022-11-07T17:46:55.451Z,5.22
2022-11-07T17:51:59.458Z,5.20
2022-11-07T17:57:08.914Z,5.47
2022-11-07T18:02:21.961Z,5.97
2022-11-07T18:07:26.324Z,5.38
2022-11-07T18:12:28.249Z,4.93
2022-11-07T18:17:30.006Z,6.13
2022-11-07T18:22:31.754Z,6.35
2022-11-07T18:27:36.864Z,7.10
2022-11-07T18:32:38.699Z,5.75
2022-11-07T18:37:40.522Z,6.55
2022-11-07T18:42:46.058Z,5.75
2022-11-07T18:47:47.799Z,10.27
2022-11-07T18:52:49.629Z,7.97
2022-11-07T18:57:51.442Z,6.43
2022-11-07T19:02:56.435Z,6.15
2022-11-07T19:08:01.367Z,7.78
2022-11-07T19:13:08.277Z,8.63
2022-11-07T19:19:03.659Z,7.45
2022-11-07T19:23:50.897Z,6.05
2022-11-07T19:29:20.609Z,6.43
2022-11-07T19:34:24.023Z,6.53
2022-11-07T19:39:29.655Z,6.75
2022-11-07T19:44:37.898Z,6.70
2022-11-07T19:49:45.420Z,9.75
2022-11-07T19:54:50.349Z,7.20
2022-11-07T19:59:56.613Z,10.05
2022-11-07T20:05:00.792Z,11.38
2022-11-07T20:10:02.623Z,12.65
2022-11-07T20:15:05.035Z,14.15
2022-11-07T20:20:13.929Z,16.88
2022-11-07T20:25:19.123Z,17.02
2022-11-07T20:30:23.209Z,15.65
2022-11-07T20:35:31.048Z,15.90
2022-11-07T20:40:36.827Z,15.60
2022-11-07T20:45:46.021Z,14.93
2022-11-07T20:50:50.274Z,14.52
2022-11-07T20:55:54.427Z,13.40
2022-11-07T21:00:56.173Z,13.85
2022-11-07T21:05:57.977Z,12.52
2022-11-07T21:11:04.609Z,12.70
2022-11-07T21:16:11.257Z,11.82
2022-11-07T21:21:20.452Z,10.70
2022-11-07T21:26:31.614Z,9.57
2022-11-07T21:31:36.629Z,9.60
2022-11-07T21:36:38.681Z,8.10
2022-11-07T21:41:42.723Z,8.38
2022-11-07T21:46:47.525Z,8.37
2022-11-07T21:57:20.290Z,6.38
2022-11-07T22:02:22.011Z,6.15
2022-11-07T22:07:23.782Z,7.22
2022-11-07T22:12:30.158Z,5.53
2022-11-07T22:17:36.729Z,5.70
2022-11-07T22:22:41.042Z,5.55
2022-11-07T22:27:45.008Z,5.60
2022-11-07T22:32:46.830Z,4.22
2022-11-07T22:37:52.149Z,4.60
2022-11-07T22:42:53.909Z,5.15
2022-11-07T22:53:23.795Z,4.28
2022-11-07T22:58:27.694Z,5.18
2022-11-07T23:03:29.430Z,4.47
2022-11-07T23:08:36.854Z,4.32
2022-11-07T23:13:41.485Z,4.07
2022-11-07T23:18:46.481Z,3.50
2022-11-07T23:23:52.427Z,3.80
2022-11-07T23:28:56.632Z,4.43
2022-11-07T23:33:58.372Z,3.63
2022-11-07T23:39:09.779Z,3.97
2022-11-07T23:44:11.665Z,4.13
2022-11-07T23:49:36.596Z,3.22
2022-11-07T23:54:59.360Z,3.42
